Bark River, Michigan
Current Conditions -  °F | °C
As of 9:35 PM on Thursday 20 Nov 2014 (Local Time) from KESC Reporting Station
Clear Clear  
Wind Chill: -2°   Ceiling: Unl
Heat Index:   Visibility: 10mi
Dew Point:   Wind: 5mph
Humidity: 72%   Direction: 260°W
Pressure: 30.11"   Gusts: NA
Location:  45.71°N, 87.3°W
Report Text: KESC 210235Z AUTO 26004KT 10SM CLR M14/M18 A3011 RMK AO1
Loading
Personal Weather Stations






























Interactive Weather Map New forecast layout! Learn more

10-Day Weather Forecast

Advertisements
Track Severe Weather on mobile